createdAt,value
2019-02-02T00:10:57.995Z,61.20
2019-02-02T00:14:15.934Z,61.30
2019-02-02T00:28:11.741Z,61.20
2019-02-02T00:30:41.999Z,61.20
2019-02-02T00:33:11.840Z,61.40
2019-02-02T00:35:43.717Z,61.50
2019-02-02T00:38:15.918Z,61.40
2019-02-02T00:40:51.078Z,61.50
2019-02-02T00:43:20.481Z,61.40
2019-02-02T00:45:50.254Z,61.40
2019-02-02T00:48:31.055Z,61.50
2019-02-02T00:51:01.749Z,61.50
2019-02-02T00:53:33.429Z,61.70
2019-02-02T00:56:02.938Z,61.80
2019-02-02T00:58:51.529Z,61.80
2019-02-02T01:01:21.120Z,61.80
2019-02-02T01:03:50.595Z,61.80
2019-02-02T01:06:22.140Z,61.80
2019-02-02T01:08:51.517Z,61.70
2019-02-02T01:11:20.870Z,61.80
2019-02-02T01:13:50.426Z,61.90
2019-02-02T01:16:19.813Z,61.90
2019-02-02T01:18:49.198Z,61.90
2019-02-02T01:21:18.579Z,61.80
2019-02-02T01:23:47.941Z,61.90
2019-02-02T01:26:17.365Z,61.90
2019-02-02T01:28:46.731Z,61.90
2019-02-02T01:31:17.278Z,61.90
2019-02-02T01:33:46.569Z,62.00
2019-02-02T01:36:15.929Z,62.00
2019-02-02T01:38:45.213Z,62.10
2019-02-02T01:41:15.533Z,62.10
2019-02-02T01:43:44.913Z,62.10
2019-02-02T01:46:14.381Z,62.20
2019-02-02T01:48:43.687Z,62.00
2019-02-02T01:51:23.175Z,62.20
2019-02-02T01:53:52.430Z,62.00
2019-02-02T01:56:21.746Z,62.20
2019-02-02T01:58:52.429Z,62.20
2019-02-02T02:01:21.785Z,62.10
2019-02-02T02:03:52.149Z,62.30
2019-02-02T02:06:21.440Z,62.30
2019-02-02T02:08:50.759Z,62.20
2019-02-02T02:11:20.178Z,62.20
2019-02-02T02:13:49.503Z,62.20
2019-02-02T02:16:18.848Z,62.20
2019-02-02T02:18:48.189Z,62.30
2019-02-02T02:21:17.389Z,62.40
2019-02-02T02:23:46.693Z,62.40
2019-02-02T02:26:16.049Z,62.40
2019-02-02T02:28:45.415Z,62.30
2019-02-02T02:31:14.808Z,62.30
2019-02-02T02:33:44.181Z,62.30
2019-02-02T02:36:13.537Z,62.30
2019-02-02T02:38:43.135Z,62.50
2019-02-02T02:41:12.505Z,62.30
2019-02-02T02:43:41.880Z,62.40
2019-02-02T02:46:11.249Z,62.20
2019-02-02T02:48:40.617Z,62.30
2019-02-02T02:51:10.032Z,62.40
2019-02-02T02:53:39.434Z,62.50
2019-02-02T02:56:11.970Z,62.50
2019-02-02T02:58:42.229Z,62.60
2019-02-02T03:01:11.656Z,62.60
2019-02-02T03:03:41.208Z,62.80
2019-02-02T03:06:10.672Z,62.80
2019-02-02T03:08:40.157Z,62.70
2019-02-02T03:11:09.637Z,62.70
2019-02-02T03:13:39.001Z,62.90
2019-02-02T03:16:08.540Z,62.90
2019-02-02T03:18:38.024Z,62.90
2019-02-02T03:21:07.373Z,62.90
2019-02-02T03:23:36.613Z,62.90
2019-02-02T03:26:06.017Z,63.00
2019-02-02T03:28:35.542Z,63.00
2019-02-02T03:31:05.611Z,63.10
2019-02-02T03:33:35.241Z,63.10
2019-02-02T03:36:04.709Z,63.20
2019-02-02T03:38:34.204Z,63.00
2019-02-02T03:41:04.955Z,63.10
2019-02-02T03:43:34.436Z,63.20
2019-02-02T03:46:04.086Z,63.30
2019-02-02T03:48:36.040Z,63.20
2019-02-02T03:51:05.617Z,63.20
2019-02-02T03:53:35.085Z,63.20
2019-02-02T03:56:04.440Z,63.20
2019-02-02T03:58:34.106Z,63.40
2019-02-02T04:01:03.620Z,63.40
2019-02-02T04:03:33.118Z,63.30
2019-02-02T04:06:02.584Z,63.30
2019-02-02T04:08:32.021Z,63.40
2019-02-02T04:11:01.521Z,63.60
2019-02-02T04:13:31.027Z,63.70
2019-02-02T04:16:00.644Z,63.80
2019-02-02T04:18:30.141Z,63.80
2019-02-02T04:20:59.636Z,63.80
2019-02-02T04:23:29.092Z,63.80
2019-02-02T04:25:59.670Z,63.80
2019-02-02T04:28:29.181Z,63.80
2019-02-02T04:30:58.621Z,64.00
2019-02-02T04:33:28.102Z,63.90
2019-02-02T04:35:57.457Z,63.90
2019-02-02T04:38:30.148Z,64.00
2019-02-02T04:40:59.830Z,63.90
2019-02-02T04:43:29.401Z,64.00
2019-02-02T04:45:58.917Z,63.90
2019-02-02T04:48:28.246Z,64.00
2019-02-02T04:50:57.604Z,63.90
2019-02-02T04:53:26.832Z,63.90
2019-02-02T04:55:56.177Z,63.90
2019-02-02T04:58:25.576Z,63.90
2019-02-02T05:00:54.987Z,63.80
2019-02-02T05:03:24.287Z,63.80
2019-02-02T05:05:53.690Z,63.80
2019-02-02T05:08:23.093Z,63.80
2019-02-02T05:10:52.501Z,63.80
2019-02-02T05:13:21.856Z,63.80
2019-02-02T05:15:51.257Z,63.80
2019-02-02T05:18:21.959Z,63.90
2019-02-02T05:20:51.451Z,63.90
2019-02-02T05:23:20.829Z,64.10
2019-02-02T05:25:50.049Z,64.00
2019-02-02T05:28:19.409Z,64.00
2019-02-02T05:30:48.785Z,64.10
2019-02-02T05:33:18.117Z,64.20
2019-02-02T05:35:47.451Z,64.30
2019-02-02T05:38:16.935Z,64.10
2019-02-02T05:40:46.364Z,64.10
2019-02-02T05:43:15.641Z,64.10
2019-02-02T05:45:45.007Z,64.20
2019-02-02T05:48:14.349Z,64.20
2019-02-02T05:50:43.581Z,64.30
2019-02-02T05:53:12.834Z,64.20
2019-02-02T05:55:50.106Z,64.20
2019-02-02T05:58:19.395Z,64.10
2019-02-02T06:00:51.929Z,64.30
2019-02-02T06:03:21.119Z,64.20
2019-02-02T06:05:50.779Z,64.20
2019-02-02T06:08:20.033Z,64.50
2019-02-02T06:10:49.633Z,65.50
2019-02-02T06:13:19.160Z,64.60
2019-02-02T06:15:48.673Z,64.60
2019-02-02T06:18:17.961Z,64.60
2019-02-02T06:20:47.249Z,64.60
2019-02-02T06:23:16.588Z,64.60
2019-02-02T06:25:45.925Z,64.60
2019-02-02T06:28:15.185Z,64.70
2019-02-02T06:30:44.370Z,64.70
2019-02-02T06:33:13.652Z,64.60
2019-02-02T06:35:43.097Z,64.60
2019-02-02T06:38:12.295Z,64.50
2019-02-02T06:40:41.585Z,64.50
2019-02-02T06:43:10.899Z,64.60
2019-02-02T06:45:40.283Z,64.40
2019-02-02T06:48:12.941Z,64.40
2019-02-02T06:50:42.361Z,64.50
2019-02-02T06:53:11.657Z,64.50
2019-02-02T06:55:41.039Z,64.50
2019-02-02T06:58:10.520Z,64.50
2019-02-02T07:00:39.857Z,64.40
2019-02-02T07:03:10.768Z,64.60
2019-02-02T07:05:40.125Z,64.40
2019-02-02T07:08:09.429Z,65.10
2019-02-02T07:10:38.703Z,64.30
2019-02-02T07:13:07.976Z,64.40
2019-02-02T07:15:38.378Z,64.40
2019-02-02T07:18:08.151Z,64.40
2019-02-02T07:20:37.849Z,64.50
2019-02-02T07:23:21.023Z,64.50
2019-02-02T07:25:50.460Z,64.40
2019-02-02T07:28:19.889Z,64.40
2019-02-02T07:30:49.351Z,64.40
2019-02-02T07:33:18.804Z,64.30
2019-02-02T07:36:04.916Z,64.30
2019-02-02T07:38:34.467Z,64.30
2019-02-02T07:41:06.682Z,64.30
2019-02-02T07:43:36.344Z,64.30
2019-02-02T07:46:14.838Z,64.40
2019-02-02T07:48:37.148Z,64.30
2019-02-02T07:51:06.704Z,64.40
2019-02-02T07:53:36.348Z,64.50
2019-02-02T07:56:06.351Z,64.40
2019-02-02T07:58:36.671Z,64.40
2019-02-02T08:01:06.194Z,64.40
2019-02-02T08:03:38.369Z,64.40
2019-02-02T08:06:08.302Z,64.40
2019-02-02T08:09:25.016Z,64.40
2019-02-02T08:11:54.613Z,64.40
2019-02-02T08:14:55.892Z,64.50
2019-02-02T08:18:35.847Z,64.30
2019-02-02T08:21:33.446Z,64.40
2019-02-02T08:24:04.971Z,64.40
2019-02-02T08:26:36.065Z,64.20
2019-02-02T08:29:16.556Z,64.30
2019-02-02T08:32:13.340Z,64.30
2019-02-02T08:34:42.878Z,64.10
2019-02-02T08:40:28.101Z,64.30
2019-02-02T09:16:56.452Z,64.30
2019-02-02T09:19:48.326Z,64.30
2019-02-02T09:37:59.742Z,64.20
2019-02-02T09:40:43.468Z,64.30
2019-02-02T09:43:56.864Z,64.40
2019-02-02T09:46:49.632Z,64.40
2019-02-02T09:52:01.814Z,64.30
2019-02-02T09:58:32.039Z,64.30
2019-02-02T10:10:27.551Z,64.00
2019-02-02T10:15:53.203Z,64.00
2019-02-02T10:19:06.808Z,63.90
2019-02-02T10:21:38.457Z,64.10
2019-02-02T10:24:09.676Z,64.20
2019-02-02T10:26:53.778Z,64.10
2019-02-02T10:29:30.528Z,64.00
2019-02-02T10:32:03.402Z,63.90
2019-02-02T10:34:37.662Z,63.90
2019-02-02T10:37:15.020Z,63.80
2019-02-02T10:40:10.906Z,63.80
2019-02-02T10:45:47.002Z,63.90
2019-02-02T10:48:21.432Z,64.00
2019-02-02T10:50:52.566Z,64.00
2019-02-02T10:53:23.968Z,64.00
2019-02-02T10:55:56.356Z,64.80
2019-02-02T10:59:03.451Z,64.30
2019-02-02T11:01:51.361Z,64.20
2019-02-02T11:04:40.052Z,64.10
2019-02-02T11:07:10.878Z,64.10
2019-02-02T11:09:40.417Z,64.00
2019-02-02T11:12:37.630Z,64.10
2019-02-02T11:15:50.963Z,64.20
2019-02-02T11:18:27.078Z,64.40
2019-02-02T11:27:49.577Z,64.30
2019-02-02T11:30:19.072Z,64.30
2019-02-02T11:37:16.903Z,64.00
2019-02-02T11:40:07.182Z,64.30
2019-02-02T11:42:36.678Z,64.30
2019-02-02T11:45:12.487Z,64.40
2019-02-02T11:47:41.932Z,64.30
2019-02-02T11:50:13.076Z,64.40
2019-02-02T11:52:42.653Z,64.50
2019-02-02T11:55:15.028Z,64.50
2019-02-02T11:57:44.713Z,64.60
2019-02-02T12:00:26.076Z,64.60
2019-02-02T12:02:55.990Z,64.70
2019-02-02T12:05:25.493Z,64.60
2019-02-02T12:07:54.961Z,64.50
2019-02-02T12:10:26.048Z,64.50
2019-02-02T12:12:55.641Z,64.40
2019-02-02T12:15:25.875Z,64.60
2019-02-02T12:17:55.242Z,64.50
2019-02-02T12:20:33.395Z,64.50
2019-02-02T12:23:03.291Z,64.50
2019-02-02T12:25:32.532Z,64.60
2019-02-02T12:28:01.904Z,64.60
2019-02-02T12:30:35.484Z,64.70
2019-02-02T12:33:05.841Z,64.80
2019-02-02T12:35:35.512Z,64.80
2019-02-02T12:38:05.158Z,65.00
2019-02-02T12:40:34.619Z,64.90
2019-02-02T12:43:06.217Z,64.90
2019-02-02T12:45:41.735Z,64.90
2019-02-02T12:48:11.122Z,64.90
2019-02-02T12:50:40.538Z,64.90
2019-02-02T12:53:11.935Z,64.90
2019-02-02T12:55:42.998Z,65.00
2019-02-02T12:58:12.267Z,65.00
2019-02-02T13:00:44.307Z,65.00
2019-02-02T13:03:13.026Z,65.10
2019-02-02T13:05:42.395Z,64.90
2019-02-02T13:08:11.837Z,64.90
2019-02-02T13:10:43.923Z,64.90
2019-02-02T13:13:13.774Z,65.00
2019-02-02T13:15:43.197Z,65.00
2019-02-02T13:18:12.526Z,65.00
2019-02-02T13:20:41.933Z,65.00
2019-02-02T13:23:11.361Z,65.20
2019-02-02T13:25:41.764Z,65.40
2019-02-02T13:28:17.728Z,65.70
2019-02-02T13:30:47.733Z,66.10
2019-02-02T13:33:17.109Z,66.70
2019-02-02T13:35:47.466Z,66.80
2019-02-02T13:38:16.815Z,67.00
2019-02-02T13:40:46.489Z,67.10
2019-02-02T13:43:16.745Z,67.30
2019-02-02T13:45:46.280Z,67.50
2019-02-02T13:48:15.947Z,67.50
2019-02-02T13:50:45.547Z,67.50
2019-02-02T13:54:07.168Z,67.50
2019-02-02T13:56:45.187Z,67.60
2019-02-02T14:20:08.611Z,67.80
2019-02-02T14:22:41.410Z,67.80
2019-02-02T14:25:11.931Z,67.70
2019-02-02T14:27:42.643Z,67.60
2019-02-02T14:30:18.166Z,67.60
2019-02-02T14:32:47.693Z,67.60
2019-02-02T14:35:17.897Z,67.60
2019-02-02T14:37:47.218Z,67.70
2019-02-02T14:40:17.597Z,67.80
2019-02-02T14:42:49.132Z,67.50
2019-02-02T14:45:21.317Z,67.60
2019-02-02T14:47:51.197Z,67.60
2019-02-02T14:50:21.753Z,67.70
2019-02-02T14:52:51.874Z,67.90
2019-02-02T14:55:26.359Z,68.10
2019-02-02T14:57:55.929Z,68.10
2019-02-02T15:00:27.191Z,68.20
2019-02-02T15:02:56.993Z,68.30
2019-02-02T15:05:26.690Z,68.30
2019-02-02T15:07:56.565Z,68.30
2019-02-02T15:10:28.051Z,68.30
2019-02-02T15:12:57.494Z,68.40
2019-02-02T15:15:28.956Z,68.40
2019-02-02T15:18:00.611Z,68.40
2019-02-02T15:20:32.521Z,68.70
2019-02-02T15:23:01.924Z,68.80
2019-02-02T15:25:31.979Z,68.80
2019-02-02T15:28:02.225Z,68.90
2019-02-02T15:30:36.414Z,68.80
2019-02-02T15:33:10.211Z,68.70
2019-02-02T15:35:40.342Z,68.60
2019-02-02T15:38:12.051Z,68.80
2019-02-02T15:40:58.712Z,68.80
2019-02-02T15:43:22.161Z,68.90
2019-02-02T15:45:51.290Z,69.80
2019-02-02T15:48:20.647Z,69.10
2019-02-02T15:50:52.421Z,69.00
2019-02-02T15:53:21.723Z,69.00
2019-02-02T15:55:53.600Z,69.00
2019-02-02T15:58:23.301Z,69.00
2019-02-02T16:00:55.743Z,68.90
2019-02-02T16:03:49.741Z,68.80
2019-02-02T16:06:21.522Z,68.90
2019-02-02T16:08:55.768Z,69.10
2019-02-02T16:11:28.455Z,69.00
2019-02-02T16:13:58.183Z,69.10
2019-02-02T16:16:27.643Z,69.00
2019-02-02T16:18:58.204Z,69.20
2019-02-02T16:21:27.814Z,69.00
2019-02-02T16:23:57.249Z,69.00
2019-02-02T16:26:26.890Z,68.80
2019-02-02T16:28:58.477Z,68.80
2019-02-02T16:31:27.412Z,68.90
2019-02-02T16:34:35.489Z,68.80
2019-02-02T16:37:05.281Z,69.00
2019-02-02T16:39:34.655Z,68.90
2019-02-02T16:42:04.292Z,69.00
2019-02-02T16:44:33.829Z,68.90
2019-02-02T16:47:06.461Z,68.80
2019-02-02T16:49:36.052Z,68.70
2019-02-02T16:52:06.615Z,68.70
2019-02-02T16:54:36.288Z,68.70
2019-02-02T16:57:05.969Z,68.60
2019-02-02T16:59:35.555Z,68.70
2019-02-02T17:02:05.454Z,68.80
2019-02-02T17:04:37.053Z,68.70
2019-02-02T17:07:15.489Z,68.60
2019-02-02T17:09:44.947Z,68.60
2019-02-02T17:12:18.337Z,68.60
2019-02-02T17:14:47.645Z,68.50
2019-02-02T17:17:17.511Z,68.50
2019-02-02T17:19:46.956Z,68.50
2019-02-02T17:22:16.579Z,68.40
2019-02-02T17:24:46.083Z,68.50
2019-02-02T17:27:18.169Z,68.60
2019-02-02T17:29:47.854Z,68.60
2019-02-02T17:32:17.213Z,68.60
2019-02-02T17:34:47.341Z,68.50
2019-02-02T17:37:16.741Z,68.60
2019-02-02T17:39:46.163Z,68.60
2019-02-02T17:42:18.435Z,68.50
2019-02-02T17:44:48.993Z,68.50
2019-02-02T17:47:18.555Z,68.50
2019-02-02T17:49:48.077Z,68.70
2019-02-02T17:52:17.681Z,68.60
2019-02-02T17:54:47.391Z,68.50
2019-02-02T17:57:19.969Z,68.50
2019-02-02T17:59:49.465Z,68.50
2019-02-02T18:02:20.861Z,69.30
2019-02-02T18:04:50.661Z,69.00
2019-02-02T18:07:22.011Z,68.80
2019-02-02T18:09:51.425Z,68.80
2019-02-02T18:12:21.043Z,68.80
2019-02-02T18:14:50.972Z,68.50
2019-02-02T18:17:20.615Z,68.60
2019-02-02T18:19:51.174Z,68.50
2019-02-02T18:22:20.559Z,68.50
2019-02-02T18:24:50.139Z,68.30
2019-02-02T18:27:21.572Z,69.20
2019-02-02T18:29:51.246Z,68.30
2019-02-02T18:32:21.055Z,68.20
2019-02-02T18:34:51.642Z,68.20
2019-02-02T18:37:21.481Z,68.10
2019-02-02T18:39:51.307Z,68.20
2019-02-02T18:42:22.045Z,68.00
2019-02-02T18:44:51.789Z,68.00
2019-02-02T18:47:22.695Z,68.00
2019-02-02T18:49:52.288Z,67.90
2019-02-02T18:52:21.833Z,68.00
2019-02-02T18:54:51.339Z,68.00
2019-02-02T18:57:20.869Z,67.90
2019-02-02T18:59:50.401Z,67.80
2019-02-02T19:02:19.930Z,67.80
2019-02-02T19:05:03.350Z,67.80
2019-02-02T19:07:23.497Z,67.70
2019-02-02T19:09:53.111Z,67.60
2019-02-02T19:12:22.605Z,67.80
2019-02-02T19:14:52.275Z,67.60
2019-02-02T19:17:21.761Z,67.60
2019-02-02T19:19:54.295Z,67.60
2019-02-02T19:22:23.995Z,67.50
2019-02-02T19:24:55.835Z,67.50
2019-02-02T19:27:25.282Z,67.30
2019-02-02T19:29:56.331Z,67.20
2019-02-02T19:32:25.911Z,67.20
2019-02-02T19:34:55.379Z,67.30
2019-02-02T19:37:24.925Z,67.40
2019-02-02T19:39:54.289Z,67.40
2019-02-02T19:42:24.225Z,67.40
2019-02-02T19:44:53.582Z,67.40
2019-02-02T19:47:23.062Z,67.40
2019-02-02T19:49:52.386Z,67.30
2019-02-02T19:52:21.712Z,67.20
2019-02-02T19:54:56.858Z,67.00
2019-02-02T19:57:42.506Z,67.10
2019-02-02T20:00:24.789Z,67.30
2019-02-02T20:02:59.942Z,67.40
2019-02-02T20:05:33.345Z,67.60
2019-02-02T20:08:03.671Z,67.60
2019-02-02T20:10:38.194Z,67.50
2019-02-02T20:13:07.577Z,67.40
2019-02-02T20:15:38.703Z,67.60
2019-02-02T20:18:11.624Z,67.60
2019-02-02T20:20:43.453Z,67.70
2019-02-02T20:23:13.606Z,67.60
2019-02-02T20:25:44.030Z,67.90
2019-02-02T20:28:21.193Z,67.90
2019-02-02T20:30:50.910Z,68.10
2019-02-02T20:33:20.543Z,68.00
2019-02-02T20:35:50.555Z,67.90
2019-02-02T20:38:19.881Z,67.80
2019-02-02T20:40:49.301Z,68.00
2019-02-02T20:43:18.750Z,68.50
2019-02-02T20:45:50.767Z,67.70
2019-02-02T20:48:20.089Z,67.80
2019-02-02T20:50:51.502Z,67.70
2019-02-02T20:53:23.557Z,67.70
2019-02-02T20:55:54.195Z,67.80
2019-02-02T20:58:23.815Z,67.70
2019-02-02T21:00:54.199Z,67.60
2019-02-02T21:03:24.874Z,67.50
2019-02-02T21:06:00.127Z,67.50
2019-02-02T21:08:31.794Z,67.30
2019-02-02T21:11:02.066Z,67.40
2019-02-02T21:13:31.462Z,67.50
2019-02-02T21:16:01.723Z,67.80
2019-02-02T21:18:33.833Z,68.50
2019-02-02T21:21:05.284Z,67.70
2019-02-02T21:23:34.994Z,67.70
2019-02-02T21:26:04.554Z,67.80
2019-02-02T21:28:34.140Z,67.50
2019-02-02T21:31:05.046Z,67.50
2019-02-02T21:33:34.536Z,67.50
2019-02-02T21:36:04.426Z,67.50
2019-02-02T21:38:33.893Z,67.40
2019-02-02T21:41:03.432Z,67.30
2019-02-02T21:43:34.033Z,67.30
2019-02-02T21:46:03.484Z,67.30
2019-02-02T21:48:32.876Z,67.40
2019-02-02T21:51:03.252Z,67.40
2019-02-02T21:53:33.574Z,67.50
2019-02-02T21:56:06.142Z,67.50
2019-02-02T21:58:36.527Z,67.50
2019-02-02T22:01:06.594Z,67.40
2019-02-02T22:03:36.208Z,67.50
2019-02-02T22:06:15.548Z,67.50
2019-02-02T22:08:41.125Z,67.50
2019-02-02T22:11:10.967Z,67.60
2019-02-02T22:13:40.389Z,67.70
2019-02-02T22:16:12.743Z,67.60
2019-02-02T22:18:42.009Z,67.50
2019-02-02T22:21:11.364Z,67.70
2019-02-02T22:23:40.658Z,67.70
2019-02-02T22:26:09.949Z,67.50
2019-02-02T22:28:39.340Z,67.50
2019-02-02T22:31:08.768Z,67.50
2019-02-02T22:33:38.018Z,67.50
2019-02-02T22:36:07.405Z,67.50
2019-02-02T22:38:36.718Z,67.40
2019-02-02T22:41:08.515Z,67.50
2019-02-02T22:43:38.472Z,67.50
2019-02-02T22:46:07.859Z,67.50
2019-02-02T22:48:37.200Z,67.60
2019-02-02T22:51:06.677Z,67.50
2019-02-02T22:53:36.058Z,67.60
2019-02-02T22:56:07.668Z,67.50
2019-02-02T22:58:37.108Z,67.60
2019-02-02T23:01:40.352Z,67.80
2019-02-02T23:05:02.300Z,67.70
2019-02-02T23:08:03.297Z,67.60
2019-02-02T23:10:44.066Z,67.60
2019-02-02T23:13:34.602Z,67.60
2019-02-02T23:16:38.159Z,67.60
2019-02-02T23:19:07.452Z,67.70
2019-02-02T23:21:38.178Z,67.30
2019-02-02T23:24:07.582Z,67.40
2019-02-02T23:26:36.962Z,67.50
2019-02-02T23:29:06.660Z,67.60
2019-02-02T23:31:36.013Z,67.70
2019-02-02T23:34:05.770Z,67.70
2019-02-02T23:36:35.108Z,67.60
2019-02-02T23:39:07.759Z,67.60
2019-02-02T23:41:37.506Z,67.70
2019-02-02T23:44:07.012Z,67.70
2019-02-02T23:46:36.310Z,67.70
2019-02-02T23:49:05.732Z,67.60
2019-02-02T23:51:35.084Z,67.70
2019-02-02T23:54:04.427Z,67.70
2019-02-02T23:56:33.720Z,67.50
2019-02-02T23:59:03.254Z,67.20
